createdAt,value
2022-12-29T00:01:29.301Z,-0.91
2022-12-29T00:03:55.789Z,-0.89
2022-12-29T00:06:22.305Z,-0.87
2022-12-29T00:08:48.767Z,-0.58
2022-12-29T00:11:22.831Z,-0.73
2022-12-29T00:14:08.661Z,-0.58
2022-12-29T00:16:36.278Z,-0.81
2022-12-29T00:19:03.674Z,-0.93
2022-12-29T00:21:48.551Z,-0.88
2022-12-29T00:24:28.636Z,-0.83
2022-12-29T00:27:23.033Z,-0.82
2022-12-29T00:30:08.955Z,-0.99
2022-12-29T00:32:54.435Z,-1.10
2022-12-29T00:35:24.488Z,-1.32
2022-12-29T00:38:09.944Z,-1.43
2022-12-29T00:40:55.140Z,-1.37
2022-12-29T00:43:40.323Z,-1.34
2022-12-29T00:46:06.846Z,-1.36
2022-12-29T00:48:52.397Z,-1.44
2022-12-29T00:51:18.872Z,-1.47
2022-12-29T00:53:45.304Z,-1.47
2022-12-29T00:56:11.760Z,-1.28
2022-12-29T00:58:38.250Z,-1.09
2022-12-29T01:01:06.568Z,-1.22
2022-12-29T01:03:34.553Z,-1.51
2022-12-29T01:06:01.527Z,-1.48
2022-12-29T01:08:28.554Z,-1.55
2022-12-29T01:11:05.572Z,-1.53
2022-12-29T01:13:32.238Z,-1.38
2022-12-29T01:15:59.137Z,-1.44
2022-12-29T01:18:26.627Z,-1.44
2022-12-29T01:20:59.082Z,-1.44
2022-12-29T01:23:25.507Z,-1.34
2022-12-29T01:25:52.051Z,-1.45
2022-12-29T01:28:23.953Z,-1.68
2022-12-29T01:30:52.329Z,-1.57
2022-12-29T01:33:18.862Z,-1.69
2022-12-29T01:35:45.797Z,-1.68
2022-12-29T01:38:12.407Z,-1.13
2022-12-29T01:40:44.187Z,-1.22
2022-12-29T01:43:11.774Z,-1.63
2022-12-29T01:45:38.544Z,-1.53
2022-12-29T01:48:05.934Z,-1.54
2022-12-29T01:50:51.860Z,-1.50
2022-12-29T01:53:21.904Z,-1.56
2022-12-29T01:55:54.618Z,-1.56
2022-12-29T01:58:23.704Z,-1.57
2022-12-29T02:00:50.323Z,-1.60
2022-12-29T02:03:18.388Z,-1.54
2022-12-29T02:05:57.420Z,-1.50
2022-12-29T02:08:25.810Z,-0.79
2022-12-29T02:10:52.421Z,-0.21
2022-12-29T02:13:24.600Z,-1.17
2022-12-29T02:15:54.192Z,-1.29
2022-12-29T02:18:29.045Z,-1.38
2022-12-29T02:21:13.983Z,-1.53
2022-12-29T02:23:47.849Z,-1.68
2022-12-29T02:26:29.015Z,-1.93
2022-12-29T02:29:14.372Z,-1.73
2022-12-29T02:31:44.081Z,-1.76
2022-12-29T02:34:26.186Z,-1.67
2022-12-29T02:36:55.466Z,-1.60
2022-12-29T02:39:32.044Z,-1.63
2022-12-29T02:42:11.892Z,-1.60
2022-12-29T02:44:41.191Z,-1.16
2022-12-29T02:47:14.707Z,-1.46
2022-12-29T02:49:48.066Z,-1.37
2022-12-29T02:52:17.565Z,-1.57
2022-12-29T02:54:44.249Z,-1.65
2022-12-29T02:57:32.552Z,-1.91
2022-12-29T03:00:04.974Z,-1.73
2022-12-29T03:02:32.881Z,-1.62
2022-12-29T03:05:08.535Z,-1.73
2022-12-29T03:07:48.131Z,-1.71
2022-12-29T03:10:17.676Z,-1.47
2022-12-29T03:13:15.926Z,-1.64
2022-12-29T03:16:00.798Z,-1.66
2022-12-29T03:18:34.463Z,-1.60
2022-12-29T03:21:04.573Z,-1.75
2022-12-29T03:23:32.325Z,-1.97
2022-12-29T03:26:02.822Z,-1.70
2022-12-29T03:28:36.053Z,-1.86
2022-12-29T03:31:04.487Z,-1.64
2022-12-29T03:33:32.891Z,-1.78
2022-12-29T03:36:05.943Z,-1.26
2022-12-29T03:38:36.564Z,-1.02
2022-12-29T03:41:06.176Z,-1.37
2022-12-29T03:43:34.325Z,-1.37
2022-12-29T03:46:01.934Z,-1.53
2022-12-29T03:48:28.675Z,-1.62
2022-12-29T03:50:56.307Z,-1.77
2022-12-29T03:53:23.463Z,-1.92
2022-12-29T03:55:50.407Z,-1.87
2022-12-29T03:58:17.158Z,-1.87
2022-12-29T04:00:55.636Z,-1.99
2022-12-29T04:03:22.954Z,-1.88
2022-12-29T04:05:50.626Z,-1.92
2022-12-29T04:08:17.768Z,-1.98
2022-12-29T04:10:44.273Z,-2.00
2022-12-29T04:13:12.756Z,-1.71
2022-12-29T04:15:39.399Z,-1.53
2022-12-29T04:18:05.922Z,-1.65
2022-12-29T04:20:52.631Z,-1.69
2022-12-29T04:23:19.359Z,-1.99
2022-12-29T04:25:47.682Z,-1.77
2022-12-29T04:28:15.586Z,-1.90
2022-12-29T04:30:42.207Z,-1.92
2022-12-29T04:33:23.970Z,-1.85
2022-12-29T04:35:50.473Z,-1.92
2022-12-29T04:38:17.471Z,-1.90
2022-12-29T04:40:47.126Z,-2.04
2022-12-29T04:43:15.255Z,-2.14
2022-12-29T04:46:00.758Z,-2.19
2022-12-29T04:48:33.007Z,-2.15
2022-12-29T04:51:19.801Z,-1.97
2022-12-29T04:53:46.680Z,-1.86
2022-12-29T04:56:13.161Z,-1.96
2022-12-29T04:58:40.051Z,-1.82
2022-12-29T05:01:06.634Z,-0.96
2022-12-29T05:03:34.455Z,-1.78
2022-12-29T05:06:00.981Z,-2.03
2022-12-29T05:08:28.546Z,-1.78
2022-12-29T05:10:57.635Z,-1.71
2022-12-29T05:13:24.133Z,-2.09
2022-12-29T05:15:52.239Z,-1.96
2022-12-29T05:18:18.887Z,-2.05
2022-12-29T05:20:46.076Z,-1.93
2022-12-29T05:23:12.675Z,-1.88
2022-12-29T05:25:40.618Z,-1.94
2022-12-29T05:28:18.807Z,-2.01
2022-12-29T05:31:11.304Z,-1.83
2022-12-29T05:33:38.100Z,-1.87
2022-12-29T05:36:09.129Z,-1.86
2022-12-29T05:38:38.012Z,-1.98
2022-12-29T05:41:04.853Z,-1.97
2022-12-29T05:43:49.665Z,-1.73
2022-12-29T05:46:30.563Z,-1.72
2022-12-29T05:49:18.997Z,-1.81
2022-12-29T05:52:17.583Z,-1.77
2022-12-29T05:54:45.332Z,-1.94
2022-12-29T05:57:16.003Z,-1.93
2022-12-29T05:59:45.951Z,-2.15
2022-12-29T06:02:12.606Z,-2.23
2022-12-29T06:04:39.475Z,-2.22
2022-12-29T06:07:05.992Z,-2.09
2022-12-29T06:09:40.035Z,-1.97
2022-12-29T06:12:07.467Z,-2.10
2022-12-29T06:14:34.178Z,-1.92
2022-12-29T06:17:01.009Z,-2.14
2022-12-29T06:19:29.056Z,-2.33
2022-12-29T06:21:55.897Z,-2.21
2022-12-29T06:24:22.512Z,-1.96
2022-12-29T06:26:49.061Z,-1.99
2022-12-29T06:29:18.093Z,-2.04
2022-12-29T06:31:46.563Z,-1.94
2022-12-29T06:34:13.571Z,-2.06
2022-12-29T06:36:40.148Z,-2.16
2022-12-29T06:39:06.934Z,-2.13
2022-12-29T06:41:34.515Z,-2.29
2022-12-29T06:44:24.309Z,-2.26
2022-12-29T06:46:58.457Z,-2.37
2022-12-29T06:49:24.990Z,-2.48
2022-12-29T06:51:51.448Z,-2.42
2022-12-29T06:54:17.866Z,-2.45
2022-12-29T06:56:44.323Z,-2.31
2022-12-29T06:59:10.929Z,-2.20
2022-12-29T07:01:37.427Z,-2.09
2022-12-29T07:04:04.365Z,-1.83
2022-12-29T07:06:30.836Z,-1.70
2022-12-29T07:08:58.342Z,-1.67
2022-12-29T07:11:24.762Z,-1.85
2022-12-29T07:13:51.288Z,-1.82
2022-12-29T07:16:17.815Z,-0.88
2022-12-29T07:18:44.397Z,-1.03
2022-12-29T07:21:11.347Z,-0.64
2022-12-29T07:23:37.883Z,0.10
2022-12-29T07:26:05.664Z,-0.13
2022-12-29T07:28:33.203Z,0.72
2022-12-29T07:31:00.213Z,1.19
2022-12-29T07:33:26.826Z,1.40
2022-12-29T07:35:53.341Z,1.50
2022-12-29T07:38:19.812Z,1.52
2022-12-29T07:40:46.349Z,1.21
2022-12-29T07:43:12.922Z,1.13
2022-12-29T07:45:47.040Z,0.70
2022-12-29T07:48:13.991Z,0.78
2022-12-29T07:50:40.419Z,0.55
2022-12-29T07:53:06.848Z,0.95
2022-12-29T07:55:33.300Z,2.04
2022-12-29T07:57:59.824Z,2.56
2022-12-29T08:00:26.687Z,2.58
2022-12-29T08:02:53.266Z,3.09
2022-12-29T08:05:19.748Z,3.27
2022-12-29T08:07:46.951Z,3.93
2022-12-29T08:10:14.081Z,4.10
2022-12-29T08:12:41.103Z,4.21
2022-12-29T08:15:09.202Z,3.02
2022-12-29T08:17:35.682Z,2.97
2022-12-29T08:20:02.258Z,4.09
2022-12-29T08:22:28.803Z,3.01
2022-12-29T08:24:55.210Z,3.26
2022-12-29T08:27:21.699Z,3.07
2022-12-29T08:29:48.221Z,3.08
2022-12-29T08:32:14.643Z,3.33
2022-12-29T08:34:41.138Z,2.83
2022-12-29T08:37:07.577Z,2.74
2022-12-29T08:39:34.774Z,2.81
2022-12-29T08:42:01.211Z,3.20
2022-12-29T08:44:27.709Z,2.83
2022-12-29T08:46:54.287Z,3.20
2022-12-29T08:49:20.756Z,3.82
2022-12-29T08:51:47.247Z,4.44
2022-12-29T08:54:13.750Z,4.55
2022-12-29T08:56:40.289Z,4.51
2022-12-29T08:59:06.977Z,4.62
2022-12-29T09:01:36.294Z,4.28
2022-12-29T09:04:14.877Z,4.90
2022-12-29T09:06:42.396Z,4.73
2022-12-29T09:09:08.947Z,4.80
2022-12-29T09:11:35.546Z,5.67
2022-12-29T09:14:01.984Z,5.36
2022-12-29T09:16:28.515Z,5.64
2022-12-29T09:18:55.121Z,5.87
2022-12-29T09:21:21.944Z,5.99
2022-12-29T09:23:48.757Z,6.30
2022-12-29T09:26:15.248Z,6.20
2022-12-29T09:28:42.450Z,6.16
2022-12-29T09:31:08.921Z,7.21
2022-12-29T09:33:35.496Z,8.07
2022-12-29T09:36:02.441Z,7.90
2022-12-29T09:38:29.186Z,8.51
2022-12-29T09:40:57.097Z,8.49
2022-12-29T09:43:42.267Z,8.28
2022-12-29T09:46:41.238Z,8.28
2022-12-29T09:49:17.148Z,8.22
2022-12-29T09:51:46.260Z,8.19
2022-12-29T09:54:30.847Z,8.74
2022-12-29T09:56:57.327Z,9.44
2022-12-29T09:59:43.592Z,8.76
2022-12-29T10:02:22.840Z,9.17
2022-12-29T10:04:49.559Z,9.13
2022-12-29T10:07:31.403Z,8.99
2022-12-29T10:10:06.797Z,8.40
2022-12-29T10:12:45.446Z,9.21
2022-12-29T10:15:32.486Z,10.13
2022-12-29T10:18:05.982Z,9.82
2022-12-29T10:20:34.430Z,10.33
2022-12-29T10:23:09.964Z,10.63
2022-12-29T10:25:38.942Z,9.73
2022-12-29T10:28:10.594Z,10.11
2022-12-29T10:30:37.235Z,10.75
2022-12-29T10:33:05.984Z,10.76
2022-12-29T10:35:36.877Z,9.32
2022-12-29T10:38:06.042Z,9.50
2022-12-29T10:40:50.104Z,10.42
2022-12-29T10:43:27.501Z,10.30
2022-12-29T10:46:00.336Z,10.77
2022-12-29T10:48:31.943Z,10.83
2022-12-29T10:51:02.126Z,10.50
2022-12-29T10:53:35.625Z,10.70
2022-12-29T10:56:02.997Z,10.50
2022-12-29T10:58:30.286Z,10.47
2022-12-29T11:00:57.030Z,11.11
2022-12-29T11:03:35.700Z,11.78
2022-12-29T11:06:07.913Z,12.32
2022-12-29T11:08:36.341Z,11.51
2022-12-29T11:11:04.396Z,11.97
2022-12-29T11:13:38.364Z,11.88
2022-12-29T11:16:05.837Z,12.58
2022-12-29T11:18:37.979Z,12.97
2022-12-29T11:21:24.229Z,13.53
2022-12-29T11:23:58.549Z,12.44
2022-12-29T11:26:30.208Z,13.44
2022-12-29T11:29:09.197Z,12.52
2022-12-29T11:31:41.792Z,13.27
2022-12-29T11:34:08.902Z,13.77
2022-12-29T11:36:36.747Z,12.84
2022-12-29T11:39:08.985Z,13.21
2022-12-29T11:41:40.299Z,12.66
2022-12-29T11:44:07.082Z,12.66
2022-12-29T11:46:34.884Z,13.12
2022-12-29T11:49:02.487Z,12.40
2022-12-29T11:51:31.478Z,12.96
2022-12-29T11:53:59.261Z,11.75
2022-12-29T11:56:41.327Z,11.97
2022-12-29T11:59:26.843Z,13.23
2022-12-29T12:01:53.901Z,13.20
2022-12-29T12:04:22.695Z,13.24
2022-12-29T12:06:54.639Z,12.98
2022-12-29T12:09:26.041Z,13.17
2022-12-29T12:11:54.821Z,12.94
2022-12-29T12:14:26.183Z,12.97
2022-12-29T12:17:15.574Z,13.22
2022-12-29T12:19:58.011Z,12.40
2022-12-29T12:22:39.286Z,12.96
2022-12-29T12:25:13.559Z,13.54
2022-12-29T12:27:44.900Z,12.98
2022-12-29T12:30:14.354Z,13.38
2022-12-29T12:32:45.059Z,13.28
2022-12-29T12:35:26.980Z,13.18
2022-12-29T12:37:56.481Z,13.21
2022-12-29T12:40:22.936Z,13.53
2022-12-29T12:43:22.255Z,12.89
2022-12-29T12:46:01.017Z,13.15
2022-12-29T12:48:46.187Z,12.91
2022-12-29T12:51:18.616Z,12.35
2022-12-29T12:53:51.787Z,12.39
2022-12-29T12:56:37.012Z,12.93
2022-12-29T12:59:24.827Z,13.69
2022-12-29T13:01:57.038Z,13.86
2022-12-29T13:04:35.197Z,13.38
2022-12-29T13:07:07.761Z,13.80
2022-12-29T13:09:48.907Z,13.22
2022-12-29T13:12:27.286Z,12.74
2022-12-29T13:15:13.306Z,12.98
2022-12-29T13:17:42.916Z,13.65
2022-12-29T13:20:34.005Z,13.84
2022-12-29T13:23:09.051Z,12.84
2022-12-29T13:25:41.599Z,12.74
2022-12-29T13:28:19.086Z,13.14
2022-12-29T13:30:55.729Z,12.79
2022-12-29T13:33:33.961Z,13.07
2022-12-29T13:36:07.015Z,12.30
2022-12-29T13:38:39.225Z,12.39
2022-12-29T13:41:09.011Z,11.92
2022-12-29T13:43:37.582Z,12.15
2022-12-29T13:46:09.029Z,12.11
2022-12-29T13:48:38.237Z,12.44
2022-12-29T13:51:05.983Z,12.69
2022-12-29T13:53:51.056Z,12.77
2022-12-29T13:56:36.416Z,12.44
2022-12-29T13:59:21.702Z,11.80
2022-12-29T14:01:48.243Z,11.75
2022-12-29T14:04:16.201Z,11.63
2022-12-29T14:06:45.016Z,11.87
2022-12-29T14:09:35.146Z,11.95
2022-12-29T14:12:02.050Z,11.50
2022-12-29T14:14:32.682Z,10.96
2022-12-29T14:17:15.264Z,10.97
2022-12-29T14:19:44.602Z,9.98
2022-12-29T14:22:12.242Z,9.16
2022-12-29T14:24:40.506Z,9.11
2022-12-29T14:27:16.069Z,8.24
2022-12-29T14:29:42.503Z,8.48
2022-12-29T14:32:27.399Z,8.29
2022-12-29T14:34:57.799Z,7.52
2022-12-29T14:37:37.252Z,7.12
2022-12-29T14:40:24.233Z,7.30
2022-12-29T14:42:52.122Z,7.31
2022-12-29T14:45:19.639Z,7.48
2022-12-29T14:47:47.252Z,7.14
2022-12-29T14:50:26.043Z,6.77
2022-12-29T14:53:02.917Z,6.90
2022-12-29T14:55:43.074Z,6.81
2022-12-29T14:58:21.291Z,6.89
2022-12-29T15:00:48.409Z,6.68
2022-12-29T15:03:20.838Z,6.36
2022-12-29T15:05:50.141Z,5.80
2022-12-29T15:08:21.947Z,5.38
2022-12-29T15:10:56.367Z,5.76
2022-12-29T15:13:24.480Z,5.91
2022-12-29T15:15:50.950Z,5.79
2022-12-29T15:18:23.933Z,5.81
2022-12-29T15:21:00.765Z,5.70
2022-12-29T15:23:27.584Z,5.55
2022-12-29T15:25:59.428Z,5.44
2022-12-29T15:28:26.811Z,5.50
2022-12-29T15:30:53.279Z,5.33
2022-12-29T15:33:20.410Z,5.28
2022-12-29T15:35:50.863Z,5.21
2022-12-29T15:38:26.227Z,5.02
2022-12-29T15:41:29.363Z,5.22
2022-12-29T15:44:11.660Z,4.93
2022-12-29T15:46:38.314Z,4.42
2022-12-29T15:49:14.847Z,4.67
2022-12-29T15:51:41.491Z,4.66
2022-12-29T15:54:16.256Z,4.57
2022-12-29T15:56:42.992Z,4.44
2022-12-29T15:59:23.884Z,4.34
2022-12-29T16:01:51.060Z,4.29
2022-12-29T16:04:17.976Z,4.06
2022-12-29T16:06:58.569Z,4.07
2022-12-29T16:09:32.590Z,4.14
2022-12-29T16:12:16.448Z,4.06
2022-12-29T16:15:02.816Z,4.14
2022-12-29T16:17:30.548Z,4.20
2022-12-29T16:20:02.664Z,4.32
2022-12-29T16:22:32.058Z,4.17
2022-12-29T16:25:04.381Z,4.36
2022-12-29T16:27:43.952Z,4.64
2022-12-29T16:30:26.432Z,4.14
2022-12-29T16:33:00.304Z,3.96
2022-12-29T16:35:28.005Z,4.36
2022-12-29T16:38:13.962Z,4.34
2022-12-29T16:40:57.023Z,3.66
2022-12-29T16:43:27.556Z,3.61
2022-12-29T16:45:54.344Z,3.57
2022-12-29T16:48:31.660Z,3.71
2022-12-29T16:51:14.189Z,3.44
2022-12-29T16:53:41.944Z,3.19
2022-12-29T16:56:28.714Z,3.23
2022-12-29T16:59:07.266Z,3.46
2022-12-29T17:01:37.219Z,3.48
2022-12-29T17:04:07.796Z,3.30
2022-12-29T17:06:34.434Z,3.38
2022-12-29T17:09:00.978Z,3.20
2022-12-29T17:11:52.460Z,3.26
2022-12-29T17:14:31.154Z,3.38
2022-12-29T17:16:57.720Z,3.25
2022-12-29T17:19:27.780Z,3.17
2022-12-29T17:21:54.249Z,3.15
2022-12-29T17:24:21.146Z,2.96
2022-12-29T17:26:52.421Z,2.87
2022-12-29T17:29:25.854Z,2.86
2022-12-29T17:31:54.312Z,2.91
2022-12-29T17:34:20.936Z,2.97
2022-12-29T17:36:47.445Z,2.90
2022-12-29T17:39:13.885Z,2.95
2022-12-29T17:41:40.438Z,2.89
2022-12-29T17:44:07.331Z,2.96
2022-12-29T17:46:35.036Z,3.01
2022-12-29T17:49:01.644Z,3.08
2022-12-29T17:51:28.365Z,2.94
2022-12-29T17:53:54.976Z,2.64
2022-12-29T17:56:21.415Z,2.69
2022-12-29T17:58:48.671Z,2.75
2022-12-29T18:01:15.469Z,2.77
2022-12-29T18:03:42.094Z,2.60
2022-12-29T18:06:12.203Z,2.56
2022-12-29T18:08:39.673Z,2.62
2022-12-29T18:11:15.241Z,2.42
2022-12-29T18:13:46.343Z,2.45
2022-12-29T18:16:14.248Z,2.21
2022-12-29T18:18:40.805Z,2.10
2022-12-29T18:21:11.327Z,2.16
2022-12-29T18:23:39.930Z,2.05
2022-12-29T18:26:28.332Z,1.89
2022-12-29T18:28:55.635Z,1.98
2022-12-29T18:31:23.749Z,2.26
2022-12-29T18:33:51.266Z,2.17
2022-12-29T18:36:18.261Z,2.14
2022-12-29T18:38:45.127Z,2.10
2022-12-29T18:41:19.323Z,1.91
2022-12-29T18:43:46.264Z,1.98
2022-12-29T18:46:18.765Z,2.71
2022-12-29T18:48:49.915Z,2.20
2022-12-29T18:51:17.668Z,2.40
2022-12-29T18:53:44.776Z,1.94
2022-12-29T18:56:11.557Z,1.93
2022-12-29T18:58:38.470Z,1.94
2022-12-29T19:01:05.578Z,2.49
2022-12-29T19:03:32.671Z,2.26
2022-12-29T19:06:00.160Z,1.97
2022-12-29T19:08:26.821Z,1.93
2022-12-29T19:10:53.265Z,1.97
2022-12-29T19:13:23.527Z,1.63
2022-12-29T19:15:50.030Z,2.85
2022-12-29T19:21:05.534Z,1.66
2022-12-29T19:23:31.976Z,1.43
2022-12-29T19:25:58.615Z,1.56
2022-12-29T19:28:26.999Z,1.98
2022-12-29T19:30:57.081Z,1.75
2022-12-29T19:33:24.100Z,1.72
2022-12-29T19:35:51.416Z,1.95
2022-12-29T19:38:17.983Z,2.13
2022-12-29T19:40:45.626Z,1.70
2022-12-29T19:43:12.698Z,1.83
2022-12-29T19:45:40.554Z,1.81
2022-12-29T19:48:18.966Z,1.76
2022-12-29T19:50:45.636Z,1.94
2022-12-29T19:53:12.317Z,1.80
2022-12-29T19:55:43.009Z,1.80
2022-12-29T19:58:09.565Z,1.64
2022-12-29T20:00:38.004Z,1.95
2022-12-29T20:03:04.695Z,1.68
2022-12-29T20:05:31.287Z,1.51
2022-12-29T20:07:57.719Z,2.01
2022-12-29T20:10:24.396Z,1.34
2022-12-29T20:12:50.881Z,1.13
2022-12-29T20:15:17.590Z,1.35
2022-12-29T20:18:14.804Z,1.31
2022-12-29T20:20:33.157Z,1.29
2022-12-29T20:22:59.573Z,0.89
2022-12-29T20:28:12.971Z,1.06
2022-12-29T20:30:39.546Z,1.01
2022-12-29T20:33:08.525Z,0.83
2022-12-29T20:35:35.598Z,0.93
2022-12-29T20:38:02.075Z,0.95
2022-12-29T20:40:28.539Z,0.91
2022-12-29T20:42:54.990Z,0.77
2022-12-29T20:45:21.471Z,1.10
2022-12-29T20:47:47.973Z,1.07
2022-12-29T20:50:15.128Z,1.03
2022-12-29T20:52:41.580Z,0.90
2022-12-29T20:55:08.182Z,0.97
2022-12-29T20:57:49.927Z,0.65
2022-12-29T21:00:22.819Z,0.46
2022-12-29T21:02:49.969Z,0.70
2022-12-29T21:05:25.274Z,0.68
2022-12-29T21:07:52.902Z,0.82
2022-12-29T21:10:19.507Z,0.73
2022-12-29T21:12:46.112Z,0.85
2022-12-29T21:15:14.958Z,0.83
2022-12-29T21:17:42.658Z,1.04
2022-12-29T21:20:09.428Z,1.21
2022-12-29T21:22:35.948Z,0.87
2022-12-29T21:25:02.411Z,0.82
2022-12-29T21:27:29.162Z,1.07
2022-12-29T21:29:57.995Z,0.93
2022-12-29T21:32:24.557Z,1.01
2022-12-29T21:34:50.987Z,1.13
2022-12-29T21:37:23.411Z,1.52
2022-12-29T21:39:50.305Z,1.13
2022-12-29T21:42:16.845Z,1.14
2022-12-29T21:45:02.034Z,0.96
2022-12-29T21:47:48.480Z,1.95
2022-12-29T21:50:15.003Z,1.57
2022-12-29T21:52:41.564Z,1.65
2022-12-29T21:55:09.080Z,1.29
2022-12-29T21:57:55.367Z,1.33
2022-12-29T22:00:40.580Z,1.29
2022-12-29T22:03:25.993Z,1.32
2022-12-29T22:06:11.328Z,1.42
2022-12-29T22:08:57.058Z,1.33
2022-12-29T22:11:42.447Z,1.47
2022-12-29T22:14:09.012Z,1.48
2022-12-29T22:16:35.484Z,1.25
2022-12-29T22:19:02.223Z,1.34
2022-12-29T22:21:28.689Z,1.26
2022-12-29T22:23:55.153Z,1.67
2022-12-29T22:26:21.673Z,1.56
2022-12-29T22:28:48.361Z,1.48
2022-12-29T22:31:27.733Z,1.25
2022-12-29T22:33:58.663Z,1.04
2022-12-29T22:36:25.214Z,0.98
2022-12-29T22:38:51.806Z,0.71
2022-12-29T22:41:18.314Z,0.85
2022-12-29T22:43:44.872Z,0.64
2022-12-29T22:46:11.465Z,0.89
2022-12-29T22:48:38.185Z,1.04
2022-12-29T22:51:04.839Z,0.91
2022-12-29T22:53:31.306Z,0.76
2022-12-29T22:56:05.595Z,0.90
2022-12-29T22:58:32.132Z,1.09
2022-12-29T23:00:58.777Z,0.99
2022-12-29T23:03:25.405Z,1.31
2022-12-29T23:05:55.884Z,1.10
2022-12-29T23:08:22.321Z,0.94
2022-12-29T23:10:48.742Z,0.97
2022-12-29T23:13:15.241Z,0.82
2022-12-29T23:15:41.750Z,0.65
2022-12-29T23:18:08.379Z,0.51
2022-12-29T23:20:34.859Z,0.60
2022-12-29T23:23:01.418Z,0.88
2022-12-29T23:25:27.904Z,0.98
2022-12-29T23:27:54.366Z,1.18
2022-12-29T23:30:20.806Z,0.99
2022-12-29T23:32:47.207Z,0.94
2022-12-29T23:35:13.747Z,1.09
2022-12-29T23:37:40.187Z,1.03
2022-12-29T23:40:07.073Z,0.99
2022-12-29T23:42:33.539Z,1.04
2022-12-29T23:45:00.022Z,1.18
2022-12-29T23:47:26.466Z,1.17
2022-12-29T23:49:52.933Z,1.30
2022-12-29T23:52:19.374Z,1.22
2022-12-29T23:54:46.479Z,0.97
2022-12-29T23:57:12.955Z,0.75
2022-12-29T23:59:39.437Z,0.91
